Pagrindinis puslapis
METAR-TAF:

METAR-TAF

Oro uostai :

Mosjøen, Norvegija

platuma: 65-48N, ilguma: 013-08E, Aukštis: 70 m

Dabartinis oras

Ataskaita buvo paskelbta 26 minutes, ne 03:50 UTC
Vėjas 1 kt iš Rytų
Temperatūra 10°C
Drėgmė 93%
Slėgis 1018 hPa
Matomumas 10 km arba daugiau
Su prošvaistėmis ne aukštis 2900 ft
Liūtis kaimynystėje

METAR: ENMS 250350Z 09001KT 9999 VCSH BKN029 10/09 Q1018 RMK WIND 412FT 00000KT

Laikas: 06:16 (04:16 UTC)


TAF: trūkstamas

Orai ataskaitas ir orų prognozės (METAR, TAF).

turimą stotys yra geltonos ir raudonos taškus žemėlapyje.

Perkelti pele per norėdami pamatyti stoties vardą.

Tada spustelėkite, norėdami matyti oro stebėjimo ir prognozės.

Norėdami pakeisti žemėlapį: spustelėkite ant žalios mygtukų su juodo kryžiaus žemyn,; žalią mygtuką su brūkšneliu, jei norite nutolinti; arba žalių rodyklių gretimoms žemėlapius.


METAR-TAF: